Time;durP1;ratioP1;P1;durP2;ratioP2;P2;SDS_P1;SDS_P2;PMS_P1;PMS_P2;Temp;Humidity;BMP_temperature;BMP_pressure;BME280_temperature;BME280_humidity;BME280_pressure;Samples;Min_cycle;Max_cycle;Signal;HPM_P1;HPM_P2
2022/05/05 00:01:15;;;;;;;15.00;11.90;;;;;;;16.20;49.51;95473.09;5071032;28;20426;-58
2022/05/05 00:03:42;;;;;;;15.30;11.17;;;;;;;15.96;50.74;95464.28;5071584;28;20438;-62
2022/05/05 00:06:09;;;;;;;13.53;10.87;;;;;;;15.92;50.14;95459.81;5071626;28;20830;-59
2022/05/05 00:08:36;;;;;;;13.33;11.13;;;;;;;16.04;49.51;95463.69;5071489;28;20469;-63
2022/05/05 00:16:34;;;;;;;11.80;10.40;;;;;;;16.14;48.69;95462.84;5070797;28;20495;-64
2022/05/05 00:19:02;;;;;;;14.30;10.43;;;;;;;16.22;48.74;95459.63;5072049;28;20445;-62
2022/05/05 00:21:30;;;;;;;14.50;11.00;;;;;;;16.02;49.68;95454.47;5071511;28;20456;-60
2022/05/05 00:23:57;;;;;;;13.57;11.13;;;;;;;15.94;50.44;95460.34;5071352;28;20438;-63
2022/05/05 00:26:24;;;;;;;14.70;10.93;;;;;;;15.86;50.79;95460.91;5069950;28;20532;-58
2022/05/05 00:28:51;;;;;;;12.30;10.13;;;;;;;15.91;50.35;95463.53;5053392;28;21038;-62
2022/05/05 00:31:18;;;;;;;12.53;10.07;;;;;;;15.98;50.23;95458.72;5070619;28;20965;-54
2022/05/05 00:33:45;;;;;;;13.07;9.50;;;;;;;16.06;49.80;95458.13;5070859;28;20965;-61
2022/05/05 00:36:12;;;;;;;12.20;8.70;;;;;;;15.98;49.66;95445.50;5070837;28;20449;-63
2022/05/05 00:38:38;;;;;;;10.93;9.63;;;;;;;16.04;49.27;95455.75;5071465;28;20499;-62
2022/05/05 00:41:08;;;;;;;12.80;10.83;;;;;;;15.81;49.39;95459.09;5070816;28;20484;-63
2022/05/05 00:43:35;;;;;;;13.50;12.20;;;;;;;15.89;49.85;95455.09;5070709;28;20438;-62
2022/05/05 00:46:03;;;;;;;14.70;12.57;;;;;;;15.83;49.63;95464.09;5070687;28;20814;-61
2022/05/05 00:48:30;;;;;;;14.73;11.53;;;;;;;15.65;49.57;95464.75;5071273;28;20444;-64
2022/05/05 00:50:58;;;;;;;12.03;10.53;;;;;;;15.87;49.26;95467.78;5070800;28;20425;-61
2022/05/05 00:53:25;;;;;;;12.10;9.93;;;;;;;15.82;49.15;95439.53;5070663;28;20500;-62
2022/05/05 00:55:56;;;;;;;11.37;10.23;;;;;;;15.95;49.72;95459.25;5070304;28;20917;-56
2022/05/05 00:58:27;;;;;;;12.13;10.60;;;;;;;15.58;49.12;95432.56;5070547;28;20422;-65
2022/05/05 01:00:54;;;;;;;13.87;11.03;;;;;;;15.65;49.75;95448.88;5069967;28;20473;-60
2022/05/05 01:03:23;;;;;;;12.93;10.10;;;;;;;15.72;49.64;95454.66;5070208;28;20515;-61
2022/05/05 01:05:50;;;;;;;11.60;9.67;;;;;;;15.60;49.59;95456.84;5069902;28;20434;-59
2022/05/05 01:08:18;;;;;;;13.33;10.50;;;;;;;15.58;49.51;95461.63;5070881;28;20465;-62
2022/05/05 01:10:46;;;;;;;11.30;10.07;;;;;;;15.70;49.65;95456.78;5069575;28;20504;-58
2022/05/05 01:13:12;;;;;;;12.73;10.97;;;;;;;15.71;48.86;95458.38;5070173;28;20948;-64
2022/05/05 01:15:41;;;;;;;12.30;11.00;;;;;;;15.71;49.07;95459.16;5069998;28;20819;-62
2022/05/05 01:18:07;;;;;;;15.87;11.40;;;;;;;15.62;49.16;95475.88;5070590;28;20438;-60
2022/05/05 01:20:45;;;;;;;13.17;11.77;;;;;;;15.81;48.50;95466.22;5070164;28;20442;-60
2022/05/05 01:23:13;;;;;;;11.27;10.10;;;;;;;15.64;49.01;95463.16;5070533;28;20556;-60
2022/05/05 01:28:28;;;;;;;10.53;9.23;;;;;;;15.42;49.49;95462.75;5069727;28;20442;-61
2022/05/05 01:30:55;;;;;;;11.43;8.93;;;;;;;15.32;49.26;95460.91;5069301;28;20848;-63
2022/05/05 01:33:23;;;;;;;9.80;8.80;;;;;;;15.48;48.97;95474.84;5070082;28;20446;-62
2022/05/05 01:35:53;;;;;;;9.87;8.67;;;;;;;15.40;49.19;95467.47;5069721;28;20426;-59
2022/05/05 01:38:23;;;;;;;9.40;8.40;;;;;;;15.60;48.66;95467.41;5070006;28;20975;-62
2022/05/05 01:40:50;;;;;;;9.60;8.60;;;;;;;15.56;48.54;95471.66;5069519;28;20579;-62
2022/05/05 01:43:23;;;;;;;10.20;7.50;;;;;;;15.57;48.64;95470.59;5069959;28;20445;-66
2022/05/05 01:45:50;;;;;;;9.40;7.57;;;;;;;15.44;48.66;95471.19;5069463;28;20450;-63
2022/05/05 01:48:17;;;;;;;10.57;7.37;;;;;;;15.27;48.63;95469.63;5069435;28;20434;-59
2022/05/05 01:50:44;;;;;;;7.53;6.83;;;;;;;15.34;48.39;95472.00;5069382;28;20489;-66
2022/05/05 01:53:11;;;;;;;9.13;7.30;;;;;;;15.30;48.70;95473.59;5069891;28;20433;-54
2022/05/05 01:55:40;;;;;;;9.33;7.30;;;;;;;15.19;49.36;95483.41;5068096;28;20430;-61
2022/05/05 01:58:07;;;;;;;8.23;7.43;;;;;;;15.19;48.66;95483.41;5069589;28;20903;-60
2022/05/05 02:00:34;;;;;;;7.50;6.80;;;;;;;15.09;48.60;95488.69;5050927;28;20469;-60
2022/05/05 02:03:01;;;;;;;10.87;7.67;;;;;;;15.11;48.88;95481.31;5069576;28;20642;-65
2022/05/05 02:05:28;;;;;;;8.60;7.70;;;;;;;15.10;48.66;95479.75;5068952;28;20796;-62
2022/05/05 02:07:55;;;;;;;11.17;8.27;;;;;;;14.91;49.34;95485.84;5069735;28;20442;-56
2022/05/05 02:10:22;;;;;;;11.23;8.03;;;;;;;15.09;48.54;95480.78;5069844;28;20513;-63
2022/05/05 02:12:51;;;;;;;9.80;7.80;;;;;;;14.96;48.59;95488.50;5069762;28;20442;-61
2022/05/05 02:15:18;;;;;;;9.87;7.63;;;;;;;14.98;48.44;95492.44;5068614;28;20536;-63
2022/05/05 02:17:45;;;;;;;7.73;6.80;;;;;;;14.67;48.78;95488.25;5069797;28;20430;-63
2022/05/05 02:20:12;;;;;;;12.53;7.47;;;;;;;14.69;48.60;95494.06;5069215;28;20465;-61
2022/05/05 02:22:40;;;;;;;8.40;6.47;;;;;;;14.55;48.93;95487.75;5069251;28;20430;-57
2022/05/05 02:25:08;;;;;;;7.87;6.53;;;;;;;14.60;48.38;95505.41;5068860;28;20448;-59
2022/05/05 02:27:53;;;;;;;7.17;6.30;;;;;;;14.57;48.63;95506.75;5069569;28;20995;-56
2022/05/05 02:30:22;;;;;;;6.73;6.10;;;;;;;14.65;48.28;95508.84;5050599;28;20508;-60
2022/05/05 02:32:50;;;;;;;7.70;7.00;;;;;;;14.54;48.15;95507.28;5069852;28;20442;-66
2022/05/05 02:35:18;;;;;;;8.13;7.33;;;;;;;14.66;47.86;95510.44;5068987;28;20473;-60
2022/05/05 02:40:32;;;;;;;9.63;8.63;;;;;;;14.33;47.86;95510.16;5068908;28;20426;-62
2022/05/05 02:42:59;;;;;;;8.93;8.03;;;;;;;14.25;48.18;95504.34;5069351;28;20449;-58
2022/05/05 02:45:26;;;;;;;10.13;9.03;;;;;;;14.33;47.72;95505.69;5068382;28;20450;-58
2022/05/05 02:47:53;;;;;;;14.23;8.87;;;;;;;14.19;48.38;95517.78;5069008;28;20450;-67
2022/05/05 02:50:20;;;;;;;9.90;8.50;;;;;;;14.25;48.37;95514.88;5068870;28;21303;-64
2022/05/05 02:52:48;;;;;;;9.87;8.43;;;;;;;14.25;48.12;95520.16;5069117;28;20890;-60
2022/05/05 02:55:15;;;;;;;20.40;8.63;;;;;;;14.10;48.14;95516.72;5068627;28;20442;-63
2022/05/05 02:57:42;;;;;;;9.03;8.03;;;;;;;14.03;48.52;95516.97;5069008;28;20456;-62
2022/05/05 03:00:11;;;;;;;9.27;8.30;;;;;;;14.11;48.34;95524.38;5068331;28;20466;-60
2022/05/05 03:02:41;;;;;;;11.77;7.83;;;;;;;14.30;47.85;95527.31;5069182;28;20499;-66
2022/05/05 03:05:10;;;;;;;9.53;8.53;;;;;;;14.27;47.96;95533.09;5068274;28;20446;-58
2022/05/05 03:07:39;;;;;;;8.73;7.83;;;;;;;14.15;48.22;95545.72;5071618;28;20434;-64
2022/05/05 03:10:07;;;;;;;36.40;9.27;;;;;;;13.98;48.66;95553.06;5071982;28;20465;-58
2022/05/05 03:12:33;;;;;;;13.80;8.90;;;;;;;13.89;48.50;95547.50;5072875;28;20533;-62
2022/05/05 03:15:00;;;;;;;27.93;10.30;;;;;;;13.67;49.20;95544.28;5072478;28;20937;-59
2022/05/05 03:17:27;;;;;;;11.80;9.10;;;;;;;13.71;49.14;95537.44;5072542;28;20454;-59
2022/05/05 03:19:54;;;;;;;18.90;10.43;;;;;;;13.89;49.42;95544.06;5072089;28;20444;-66
2022/05/05 03:22:22;;;;;;;13.20;9.60;;;;;;;13.82;49.53;95554.06;5072255;28;20430;-57
2022/05/05 03:24:48;;;;;;;30.53;11.37;;;;;;;13.92;49.44;95546.97;5071958;28;20438;-63
2022/05/05 03:27:15;;;;;;;45.33;12.10;;;;;;;13.39;50.25;95547.34;5072771;28;20973;-64
2022/05/05 03:29:42;;;;;;;22.43;11.50;;;;;;;13.35;50.32;95556.78;5072481;28;20995;-54
2022/05/05 03:32:09;;;;;;;16.60;11.33;;;;;;;13.11;51.18;95552.97;5072186;28;20533;-58
2022/05/05 03:34:36;;;;;;;16.27;11.60;;;;;;;13.31;50.87;95565.44;5072195;28;20445;-65
2022/05/05 03:37:03;;;;;;;16.27;10.87;;;;;;;13.50;50.37;95548.16;5071473;28;20438;-53
2022/05/05 03:39:30;;;;;;;15.53;11.23;;;;;;;13.61;50.08;95552.44;5072669;28;20441;-63
2022/05/05 03:41:57;;;;;;;13.67;10.33;;;;;;;13.68;49.57;95550.34;5071495;28;20446;-63
2022/05/05 03:44:24;;;;;;;14.30;10.33;;;;;;;13.72;49.78;95551.41;5072642;28;20434;-60
2022/05/05 03:46:51;;;;;;;15.93;11.30;;;;;;;13.59;50.13;95552.69;5071499;28;20450;-60
2022/05/05 03:49:19;;;;;;;15.47;10.60;;;;;;;13.83;49.41;95545.13;5072328;28;20460;-53
2022/05/05 03:51:45;;;;;;;14.90;10.57;;;;;;;13.71;49.14;95552.44;5071627;28;20438;-64
2022/05/05 03:54:12;;;;;;;14.77;10.73;;;;;;;13.67;51.04;95548.75;5071796;28;20944;-64
2022/05/05 03:56:39;;;;;;;14.93;10.90;;;;;;;14.12;49.76;95551.53;5071367;28;20453;-67
2022/05/05 03:59:06;;;;;;;13.50;10.00;;;;;;;14.07;50.23;95554.13;5071927;28;20488;-58
2022/05/05 04:01:33;;;;;;;19.17;11.93;;;;;;;14.19;49.70;95557.31;5069674;28;20442;-59
2022/05/05 04:04:00;;;;;;;14.17;10.67;;;;;;;14.21;50.49;95571.81;5071490;28;20533;-60
2022/05/05 04:06:27;;;;;;;14.53;11.07;;;;;;;14.46;50.52;95568.47;5071321;28;20835;-60
2022/05/05 04:08:54;;;;;;;14.97;10.90;;;;;;;14.64;50.23;95570.56;5071696;28;20843;-61
2022/05/05 04:11:21;;;;;;;13.70;10.30;;;;;;;14.43;50.27;95578.75;5071109;28;20909;-58
2022/05/05 04:13:47;;;;;;;14.50;9.10;;;;;;;14.39;50.22;95582.94;5071577;28;20832;-57
2022/05/05 04:16:15;;;;;;;13.87;8.90;;;;;;;14.50;49.70;95580.06;5070355;28;20541;-63
2022/05/05 04:18:43;;;;;;;10.90;9.10;;;;;;;14.52;50.15;95577.97;5070739;28;20422;-64
2022/05/05 04:21:10;;;;;;;11.33;9.20;;;;;;;14.48;50.11;95581.38;5070780;28;20991;-64
2022/05/05 04:23:37;;;;;;;13.67;8.80;;;;;;;14.60;50.35;95584.53;5071352;28;20492;-66
2022/05/05 04:26:11;;;;;;;10.33;8.57;;;;;;;14.64;49.78;95588.25;5070842;28;20429;-60
2022/05/05 04:28:39;;;;;;;12.17;8.77;;;;;;;14.16;51.26;95590.25;5071281;28;20442;-63
2022/05/05 04:31:06;;;;;;;12.70;9.57;;;;;;;14.32;51.03;95591.13;5070440;28;21081;-64
2022/05/05 04:33:33;;;;;;;13.47;10.97;;;;;;;14.19;51.30;95591.59;5070986;28;20519;-60
2022/05/05 04:36:00;;;;;;;18.37;10.33;;;;;;;14.36;50.68;95597.44;5070780;28;20546;-64
2022/05/05 04:38:27;;;;;;;16.60;11.77;;;;;;;13.94;52.30;95596.81;5071117;28;20972;-67
2022/05/05 04:40:54;;;;;;;14.43;10.73;;;;;;;14.46;51.48;95602.75;5070991;28;20883;-60
2022/05/05 04:43:21;;;;;;;22.03;12.73;;;;;;;14.71;51.76;95602.75;5070929;28;20442;-69
2022/05/05 04:45:48;;;;;;;20.43;13.10;;;;;;;14.88;51.96;95602.50;5070285;28;21071;-69
2022/05/05 04:48:15;;;;;;;43.07;29.67;;;;;;;15.38;52.35;95596.34;5070138;28;20441;-65
2022/05/05 04:50:42;;;;;;;23.97;14.80;;;;;;;15.50;50.79;95588.94;5070495;28;20547;-63
2022/05/05 04:53:09;;;;;;;37.27;19.97;;;;;;;15.30;51.12;95589.78;5070491;28;20484;-68
2022/05/05 04:55:36;;;;;;;37.80;20.27;;;;;;;14.63;52.46;95605.13;5070569;28;20442;-60
2022/05/05 04:58:03;;;;;;;42.77;21.87;;;;;;;14.21;53.95;95597.41;5070927;28;20438;-61
2022/05/05 05:00:30;;;;;;;42.20;22.37;;;;;;;14.33;53.37;95597.16;5070125;28;20519;-65
2022/05/05 05:02:58;;;;;;;44.10;22.17;;;;;;;14.19;53.82;95594.22;5070835;28;20815;-67
2022/05/05 05:05:25;;;;;;;39.13;20.63;;;;;;;14.84;51.77;95585.59;5070387;28;20474;-62
2022/05/05 05:07:52;;;;;;;35.33;20.50;;;;;;;14.69;52.46;95598.81;5053094;28;20533;-64
2022/05/05 05:10:19;;;;;;;38.77;20.93;;;;;;;14.78;52.43;95576.88;5070673;28;20482;-68
2022/05/05 05:12:47;;;;;;;32.10;19.07;;;;;;;15.25;51.23;95595.06;5070654;28;20437;-65
2022/05/05 05:15:14;;;;;;;34.10;19.37;;;;;;;15.16;51.00;95589.53;5070300;28;20876;-59
2022/05/05 05:17:41;;;;;;;33.70;19.50;;;;;;;15.53;51.02;95599.00;5070565;28;20475;-63
2022/05/05 05:20:09;;;;;;;37.53;19.63;;;;;;;15.57;50.49;95597.38;5070097;28;20434;-64
2022/05/05 05:22:37;;;;;;;37.20;21.43;;;;;;;15.83;50.76;95598.88;5070646;28;20548;-65
2022/05/05 05:25:05;;;;;;;39.37;21.07;;;;;;;15.96;50.41;95598.31;5070325;28;20445;-60
2022/05/05 05:27:31;;;;;;;39.27;21.37;;;;;;;16.02;49.94;95591.94;5070157;28;20434;-66
2022/05/05 05:29:58;;;;;;;38.07;21.40;;;;;;;16.04;50.77;95597.72;5069156;28;20474;-60
2022/05/05 05:32:25;;;;;;;34.40;20.90;;;;;;;16.24;50.29;95594.97;5069271;28;20444;-64
2022/05/05 05:34:52;;;;;;;33.77;21.70;;;;;;;16.24;50.28;95594.97;5068344;28;20449;-61
2022/05/05 05:37:19;;;;;;;34.67;21.53;;;;;;;16.30;49.50;95599.16;5067658;28;20434;-64
2022/05/05 05:39:46;;;;;;;42.37;22.17;;;;;;;16.27;49.75;95605.00;5068020;28;20426;-60
2022/05/05 05:42:13;;;;;;;37.90;22.77;;;;;;;16.42;49.19;95602.28;5068061;28;20446;-62
2022/05/05 05:44:40;;;;;;;35.17;22.90;;;;;;;16.37;49.90;95599.66;5068026;28;20957;-60
2022/05/05 05:47:10;;;;;;;38.53;22.47;;;;;;;16.41;49.03;95610.47;5069582;28;20438;-63
2022/05/05 05:49:37;;;;;;;33.03;22.20;;;;;;;16.40;48.97;95609.72;5070344;28;20445;-62
2022/05/05 05:52:04;;;;;;;30.67;21.67;;;;;;;16.49;49.38;95608.09;5069353;28;20489;-62
2022/05/05 05:54:31;;;;;;;36.07;22.03;;;;;;;16.64;49.59;95610.63;5069880;28;20440;-64
2022/05/05 05:56:58;;;;;;;34.73;22.73;;;;;;;16.52;50.12;95602.25;5069297;28;21196;-61
2022/05/05 05:59:25;;;;;;;34.00;21.53;;;;;;;16.52;49.74;95607.53;5069506;28;20474;-61
2022/05/05 06:04:37;;;;;;;35.70;21.93;;;;;;;16.36;49.83;95600.72;5069952;28;20492;-62
2022/05/05 06:07:04;;;;;;;34.00;21.83;;;;;;;16.52;49.08;95612.81;5069066;28;20426;-61
2022/05/05 06:09:31;;;;;;;29.63;20.17;;;;;;;16.52;49.53;95606.72;5069474;28;20446;-65
2022/05/05 06:11:58;;;;;;;38.30;21.03;;;;;;;16.34;50.34;95605.50;5069304;28;20470;-59
2022/05/05 06:14:25;;;;;;;32.40;21.93;;;;;;;16.27;50.61;95612.94;5069329;28;21283;-63
2022/05/05 06:16:51;;;;;;;34.63;21.50;;;;;;;15.93;49.93;95604.91;5069151;28;20995;-62
2022/05/05 06:19:18;;;;;;;32.03;20.97;;;;;;;16.04;49.81;95595.88;5069318;28;21063;-62
2022/05/05 06:21:46;;;;;;;34.83;23.07;;;;;;;16.29;50.16;95608.19;5069226;28;20441;-60
2022/05/05 06:24:13;;;;;;;37.80;23.27;;;;;;;16.03;50.21;95625.22;5069655;28;20438;-65
2022/05/05 06:26:40;;;;;;;39.70;25.13;;;;;;;16.04;50.74;95624.94;5068909;28;20434;-64
2022/05/05 06:29:07;;;;;;;39.10;25.90;;;;;;;16.36;49.81;95616.59;5069513;28;20964;-62
2022/05/05 06:31:34;;;;;;;38.47;24.30;;;;;;;16.29;50.37;95617.97;5069006;28;20562;-61
2022/05/05 06:34:01;;;;;;;42.37;26.57;;;;;;;16.55;50.44;95614.91;5069448;28;20453;-61
2022/05/05 06:36:28;;;;;;;42.27;26.83;;;;;;;16.55;50.01;95606.19;5068971;28;20449;-61
2022/05/05 06:38:55;;;;;;;44.60;28.30;;;;;;;16.54;49.88;95608.03;5069049;28;20983;-62
2022/05/05 06:41:22;;;;;;;47.53;30.70;;;;;;;16.27;50.01;95617.44;5069655;28;21183;-62
2022/05/05 06:43:50;;;;;;;47.17;30.57;;;;;;;16.66;49.23;95603.19;5073371;28;20476;-65
2022/05/05 06:46:17;;;;;;;50.03;31.77;;;;;;;16.61;49.43;95616.47;5072813;28;20495;-62
2022/05/05 06:48:56;;;;;;;50.43;32.10;;;;;;;16.61;49.32;95611.16;5073219;28;20440;-62
2022/05/05 06:51:23;;;;;;;46.63;31.23;;;;;;;16.74;49.32;95605.25;5072677;28;20481;-62
2022/05/05 06:53:50;;;;;;;43.40;28.73;;;;;;;16.94;49.14;95612.25;5073344;28;20533;-61
2022/05/05 06:56:17;;;;;;;45.17;27.87;;;;;;;17.00;49.40;95614.59;5072779;28;20460;-63
2022/05/05 06:58:44;;;;;;;42.23;28.00;;;;;;;16.62;49.54;95623.34;5072915;28;20449;-62
2022/05/05 07:06:42;;;;;;;41.23;29.33;;;;;;;17.04;50.15;95602.34;5072155;28;20433;-64
2022/05/05 07:12:02;;;;;;;40.33;30.23;;;;;;;17.44;48.75;95626.91;5041713;28;20909;-64
2022/05/05 07:14:29;;;;;;;42.03;28.47;;;;;;;17.39;47.81;95619.78;5073301;28;20881;-61
2022/05/05 07:16:56;;;;;;;41.03;27.80;;;;;;;17.03;48.54;95623.81;5072248;28;20510;-63
2022/05/05 07:19:28;;;;;;;44.70;31.70;;;;;;;17.27;49.19;95623.88;5072817;28;20542;-59
2022/05/05 07:21:54;;;;;;;41.97;28.53;;;;;;;17.57;49.08;95623.63;5072182;28;20971;-63
2022/05/05 07:24:21;;;;;;;32.43;23.57;;;;;;;17.62;48.60;95615.63;5072869;28;20549;-64
2022/05/05 07:26:48;;;;;;;28.40;22.23;;;;;;;17.74;48.05;95623.94;5072122;28;20528;-62
2022/05/05 07:29:16;;;;;;;29.40;24.07;;;;;;;17.82;48.95;95626.00;5072330;28;20844;-65
2022/05/05 07:31:44;;;;;;;39.17;28.30;;;;;;;18.17;48.77;95622.91;5071824;28;20473;-64
2022/05/05 07:34:12;;;;;;;38.20;28.27;;;;;;;18.14;48.10;95613.66;5072369;28;20827;-63
2022/05/05 07:36:39;;;;;;;31.47;24.80;;;;;;;18.41;48.11;95613.06;5071791;28;20445;-63
2022/05/05 07:39:06;;;;;;;34.47;24.57;;;;;;;17.51;48.93;95606.19;5072419;28;20446;-64
2022/05/05 07:41:33;;;;;;;33.30;24.10;;;;;;;16.72;50.29;95620.63;5072274;28;20446;-63
2022/05/05 07:44:01;;;;;;;31.43;23.57;;;;;;;17.30;49.96;95618.03;5071896;28;20480;-64
2022/05/05 07:46:28;;;;;;;32.93;23.83;;;;;;;17.49;49.23;95622.38;5071514;28;20884;-64
2022/05/05 07:48:55;;;;;;;33.87;23.03;;;;;;;17.88;48.57;95620.34;5072570;28;20487;-64
2022/05/05 07:51:22;;;;;;;34.50;25.27;;;;;;;17.81;49.53;95624.44;5071466;28;20474;-64
2022/05/05 07:56:34;;;;;;;33.63;22.30;;;;;;;18.26;48.38;95621.22;5071529;28;20448;-65
2022/05/05 07:59:01;;;;;;;35.97;22.93;;;;;;;18.50;48.05;95621.97;5071873;28;20465;-64
2022/05/05 08:01:28;;;;;;;28.87;21.73;;;;;;;18.38;47.70;95624.22;5071558;28;20964;-64
2022/05/05 08:03:55;;;;;;;35.33;22.87;;;;;;;18.52;47.97;95625.09;5071974;28;20470;-63
2022/05/05 08:06:22;;;;;;;37.53;22.63;;;;;;;18.53;48.11;95616.09;5071339;28;20446;-63
2022/05/05 08:08:49;;;;;;;40.33;22.47;;;;;;;18.47;48.48;95622.53;5071941;28;20453;-61
2022/05/05 08:11:16;;;;;;;32.90;21.17;;;;;;;18.85;47.26;95634.72;5071305;28;20983;-63
2022/05/05 08:13:43;;;;;;;29.37;21.33;;;;;;;19.13;47.75;95624.97;5071536;28;20455;-62
2022/05/05 08:16:11;;;;;;;32.37;22.00;;;;;;;19.11;47.35;95606.69;5071476;28;20826;-64
2022/05/05 08:18:38;;;;;;;32.07;20.80;;;;;;;19.18;47.50;95624.88;5072337;28;20481;-64
2022/05/05 08:21:06;;;;;;;30.60;19.47;;;;;;;18.48;47.82;95618.81;5071588;28;20565;-60
2022/05/05 08:23:33;;;;;;;27.83;19.50;;;;;;;18.62;47.32;95619.66;5071714;28;20884;-63
2022/05/05 08:28:45;;;;;;;29.30;20.27;;;;;;;19.31;45.69;95615.38;5071914;28;20518;-61
2022/05/05 08:31:12;;;;;;;28.77;18.30;;;;;;;19.52;45.33;95620.09;5071258;28;20495;-65
2022/05/05 08:33:40;;;;;;;31.97;22.50;;;;;;;19.49;45.35;95606.59;5071489;28;20449;-61
2022/05/05 08:36:08;;;;;;;34.57;20.63;;;;;;;19.81;45.38;95615.28;5070956;28;20442;-61
2022/05/05 08:38:35;;;;;;;37.97;18.53;;;;;;;20.12;44.20;95612.81;5071307;28;20447;-60
2022/05/05 08:41:03;;;;;;;21.70;17.20;;;;;;;19.92;44.89;95598.03;5070845;28;20431;-61
2022/05/05 08:43:30;;;;;;;25.43;16.53;;;;;;;20.38;44.68;95607.78;5053696;28;20445;-63
2022/05/05 08:46:22;;;;;;;24.33;19.13;;;;;;;20.71;44.56;95601.16;5070510;28;20426;-62
2022/05/05 08:48:53;;;;;;;25.97;17.50;;;;;;;20.70;44.44;95600.38;5070832;28;20457;-62
2022/05/05 08:51:23;;;;;;;25.20;16.77;;;;;;;20.96;43.53;95596.03;5070614;28;20485;-60
2022/05/05 08:53:53;;;;;;;27.03;17.47;;;;;;;21.08;44.04;95593.63;5071158;28;20478;-63
2022/05/05 08:56:20;;;;;;;23.80;17.27;;;;;;;21.13;44.44;95588.16;5070727;28;20438;-60
2022/05/05 08:58:47;;;;;;;26.63;16.90;;;;;;;21.22;43.59;95596.22;5070856;28;20430;-63
2022/05/05 09:01:14;;;;;;;30.47;20.67;;;;;;;21.30;44.42;95597.34;5070708;28;20448;-59
2022/05/05 09:03:41;;;;;;;28.37;20.93;;;;;;;21.51;44.34;95593.09;5071111;28;20445;-62
2022/05/05 09:06:08;;;;;;;35.37;26.00;;;;;;;21.80;43.98;95591.50;5070282;28;20434;-61
2022/05/05 09:08:35;;;;;;;30.07;21.10;;;;;;;21.93;43.56;95590.59;5070670;28;20450;-63
2022/05/05 09:11:05;;;;;;;24.23;13.43;;;;;;;21.98;42.79;95593.13;5069883;28;20481;-63
2022/05/05 09:13:36;;;;;;;21.43;15.37;;;;;;;21.72;43.25;95581.56;5070846;28;20446;-63
2022/05/05 09:16:05;;;;;;;20.27;14.80;;;;;;;22.06;42.60;95591.59;5070117;28;20544;-62
2022/05/05 09:18:34;;;;;;;23.83;15.97;;;;;;;22.07;42.92;95595.81;5070480;28;20445;-63
2022/05/05 09:21:04;;;;;;;19.33;14.63;;;;;;;22.06;41.73;95583.59;5070025;28;20442;-61
2022/05/05 09:26:25;;;;;;;19.27;12.83;;;;;;;22.46;41.80;95585.06;5069886;28;20433;-61
2022/05/05 09:28:52;;;;;;;17.27;11.47;;;;;;;22.46;41.24;95560.25;5070166;28;20442;-61
2022/05/05 09:31:21;;;;;;;18.43;11.80;;;;;;;22.17;40.15;95580.28;5069482;28;20465;-61
2022/05/05 09:33:48;;;;;;;16.53;12.47;;;;;;;22.12;41.92;95587.66;5070127;28;20196;-63
2022/05/05 09:36:25;;;;;;;14.03;11.60;;;;;;;22.52;42.02;95567.78;5069533;28;20454;-63
2022/05/05 09:38:51;;;;;;;23.23;13.53;;;;;;;22.69;41.30;95570.47;5069994;28;20430;-64
2022/05/05 09:41:20;;;;;;;18.20;11.70;;;;;;;22.20;41.34;95573.56;5069727;28;20442;-63
2022/05/05 09:43:47;;;;;;;20.97;15.73;;;;;;;22.42;42.37;95565.41;5069711;28;20670;-59
2022/05/05 09:46:25;;;;;;;27.77;22.17;;;;;;;22.92;41.92;95574.53;5069352;28;20879;-60
2022/05/05 09:49:16;;;;;;;20.10;16.47;;;;;;;22.97;41.92;95582.38;5069681;28;20499;-63
2022/05/05 09:57:42;;;;;;;18.97;11.77;;;;;;;23.63;40.25;95561.50;5069597;28;20465;-61
2022/05/05 10:05:50;;;;;;;13.00;9.43;;;;;;;24.45;39.09;95550.97;5068971;28;20608;-59
2022/05/05 10:08:29;;;;;;;12.77;8.60;;;;;;;24.36;37.15;95546.78;5069865;28;20190;-64
2022/05/05 10:10:57;;;;;;;10.77;8.30;;;;;;;24.94;37.17;95542.06;5069030;28;20253;-61
2022/05/05 10:13:26;;;;;;;10.93;7.70;;;;;;;24.90;35.16;95530.44;5069476;28;20235;-62
2022/05/05 10:15:53;;;;;;;14.60;7.67;;;;;;;25.36;36.14;95531.22;5068229;28;20271;-64
2022/05/05 10:18:29;;;;;;;12.67;6.77;;;;;;;25.83;35.24;95535.09;5069013;28;20717;-61
2022/05/05 10:20:57;;;;;;;13.90;6.33;;;;;;;25.87;35.00;95541.38;5068738;28;20194;-61
2022/05/05 10:23:36;;;;;;;8.87;5.67;;;;;;;25.14;33.15;95540.47;5069366;28;20283;-63
2022/05/05 10:26:05;;;;;;;10.47;6.10;;;;;;;25.85;33.74;95544.38;5068510;28;20223;-62
2022/05/05 10:28:41;;;;;;;7.23;5.73;;;;;;;26.11;32.47;95540.59;5069367;28;20207;-59
2022/05/05 10:31:35;;;;;;;5.33;4.83;;;;;;;26.14;33.45;95538.00;5069110;28;20203;-60
2022/05/05 10:34:14;;;;;;;6.63;5.13;;;;;;;26.59;32.26;95541.25;5068974;28;20230;-59
2022/05/05 10:36:57;;;;;;;6.60;4.57;;;;;;;26.39;31.56;95546.78;5068531;28;20220;-62
2022/05/05 10:39:26;;;;;;;5.73;4.87;;;;;;;26.47;32.44;95544.00;5069039;28;20188;-62
2022/05/05 10:42:15;;;;;;;5.67;4.03;;;;;;;26.31;30.07;95545.84;5068851;28;20199;-61
2022/05/05 10:45:05;;;;;;;7.40;4.07;;;;;;;26.84;31.31;95536.63;5069201;28;20188;-62
2022/05/05 10:47:51;;;;;;;6.57;3.20;;;;;;;27.24;30.19;95528.47;5068707;28;20187;-62
2022/05/05 10:50:54;;;;;;;4.57;2.23;;;;;;;26.89;26.51;95537.16;5068874;28;20207;-62
2022/05/05 10:53:29;;;;;;;2.60;2.40;;;;;;;27.22;26.79;95536.09;5068800;28;20222;-63
2022/05/05 10:56:02;;;;;;;6.37;2.50;;;;;;;27.46;26.72;95528.69;5068374;28;20198;-63
2022/05/05 10:58:57;;;;;;;7.57;3.53;;;;;;;27.81;27.85;95531.44;5068978;28;20204;-59
2022/05/05 11:01:26;;;;;;;4.07;2.33;;;;;;;28.02;27.95;95526.59;5068482;28;20192;-62
2022/05/05 11:04:12;;;;;;;2.97;2.10;;;;;;;28.06;26.39;95522.09;5068821;28;20196;-62
2022/05/05 11:06:40;;;;;;;2.83;2.40;;;;;;;27.99;25.90;95521.94;5068679;28;20196;-61
2022/05/05 11:09:07;;;;;;;3.23;2.40;;;;;;;27.24;25.44;95533.84;5069172;28;20590;-62
2022/05/05 11:11:40;;;;;;;6.77;2.43;;;;;;;27.07;27.32;95536.84;5068819;28;20231;-63
2022/05/05 11:23:08;;;;;;;3.13;2.03;;;;;;;26.75;25.48;95528.69;5068714;28;20206;-63
2022/05/05 11:25:40;;;;;;;4.03;2.10;;;;;;;26.43;25.53;95528.88;5067719;28;20666;-60
2022/05/05 11:28:10;;;;;;;7.13;2.30;;;;;;;26.44;26.20;95528.53;5070556;28;20231;-62
2022/05/05 11:30:41;;;;;;;6.00;2.20;;;;;;;26.21;25.08;95526.69;5070764;28;20204;-60
2022/05/05 11:33:08;;;;;;;3.33;2.20;;;;;;;26.44;26.99;95538.53;5072265;28;20275;-63
2022/05/05 11:35:56;;;;;;;3.40;2.20;;;;;;;26.57;26.19;95530.06;5072247;28;20200;-62
2022/05/05 11:38:28;;;;;;;2.50;2.30;;;;;;;26.32;26.22;95533.94;5072610;28;20204;-62
2022/05/05 11:41:05;;;;;;;4.80;2.10;;;;;;;25.99;25.01;95530.59;5072097;28;20691;-62
2022/05/05 11:46:20;;;;;;;2.83;1.93;;;;;;;26.43;26.31;95526.19;5071964;28;20207;-61
2022/05/05 11:48:56;;;;;;;5.73;2.17;;;;;;;26.47;26.47;95533.25;5072127;28;20189;-62
2022/05/05 11:51:32;;;;;;;5.17;2.57;;;;;;;26.37;25.83;95528.34;5071767;28;20298;-62
2022/05/05 11:54:04;;;;;;;8.03;3.03;;;;;;;26.69;26.86;95524.69;5072233;28;20194;-60
2022/05/05 11:56:32;;;;;;;2.57;2.10;;;;;;;26.88;25.20;95532.09;5071959;28;20579;-62
2022/05/05 12:02:11;;;;;;;4.97;1.90;;;;;;;27.90;25.33;95513.22;5071697;28;20282;-61
2022/05/05 12:04:44;;;;;;;7.77;2.67;;;;;;;28.44;25.44;95511.38;5071941;28;20231;-60
2022/05/05 12:07:22;;;;;;;6.27;2.60;;;;;;;28.76;24.98;95502.03;5071981;28;20273;-64
2022/05/05 12:09:54;;;;;;;5.07;2.10;;;;;;;28.89;23.64;95498.03;5071099;28;20199;-61
2022/05/05 12:12:24;;;;;;;3.43;2.43;;;;;;;29.13;24.22;95498.88;5071631;28;20306;-62
2022/05/05 12:14:57;;;;;;;3.63;2.30;;;;;;;28.95;23.72;95499.31;5070961;28;20184;-62
2022/05/05 12:17:33;;;;;;;4.10;2.47;;;;;;;28.75;23.24;95500.47;5071842;28;20202;-60
2022/05/05 12:20:05;;;;;;;4.07;2.77;;;;;;;29.14;23.95;95505.84;5071165;28;20201;-60
2022/05/05 12:22:39;;;;;;;5.40;2.10;;;;;;;29.33;24.12;95513.91;5071633;28;20284;-61
2022/05/05 12:25:14;;;;;;;3.07;1.97;;;;;;;29.29;22.75;95502.28;5070873;28;20196;-64
2022/05/05 12:28:00;;;;;;;2.23;2.03;;;;;;;28.46;21.97;95505.63;5071526;28;20195;-61